createdAt,value
2018-04-23T00:01:05.356Z,0
2018-04-23T00:02:27.156Z,0
2018-04-23T00:03:48.956Z,0
2018-04-23T00:05:10.756Z,0
2018-04-23T00:06:32.287Z,0
2018-04-23T00:07:53.815Z,0
2018-04-23T00:09:15.415Z,0
2018-04-23T00:10:37.216Z,0
2018-04-23T00:11:59.001Z,0
2018-04-23T00:13:21.067Z,0
2018-04-23T00:14:43.111Z,0
2018-04-23T00:16:04.430Z,0
2018-04-23T00:17:26.524Z,0
2018-04-23T00:18:48.335Z,0
2018-04-23T00:20:10.182Z,0
2018-04-23T00:21:31.722Z,0
2018-04-23T00:22:53.514Z,0
2018-04-23T00:24:15.562Z,0
2018-04-23T00:25:37.358Z,0
2018-04-23T00:26:58.888Z,0
2018-04-23T00:28:20.161Z,0
2018-04-23T00:29:42.215Z,0
2018-04-23T00:31:04.017Z,0
2018-04-23T00:32:25.831Z,0
2018-04-23T00:33:47.362Z,0
2018-04-23T00:35:08.911Z,0
2018-04-23T00:36:30.702Z,0
2018-04-23T00:37:52.758Z,0
2018-04-23T00:39:14.810Z,0
2018-04-23T00:40:36.336Z,0
2018-04-23T00:41:58.129Z,0
2018-04-23T00:43:19.413Z,0
2018-04-23T00:44:41.469Z,0
2018-04-23T00:46:03.540Z,0
2018-04-23T00:47:25.076Z,0
2018-04-23T00:48:46.616Z,0
2018-04-23T00:50:08.664Z,0
2018-04-23T00:51:30.483Z,0
2018-04-23T00:52:52.540Z,0
2018-04-23T00:54:14.619Z,0
2018-04-23T00:55:36.673Z,0
2018-04-23T00:56:58.752Z,0
2018-04-23T00:58:20.285Z,0
2018-04-23T00:59:42.353Z,0
2018-04-23T01:01:04.421Z,0
2018-04-23T01:02:26.494Z,0
2018-04-23T01:03:48.286Z,0
2018-04-23T01:05:10.109Z,0
2018-04-23T01:06:31.916Z,0
2018-04-23T01:07:53.977Z,0
2018-04-23T01:09:15.775Z,0
2018-04-23T01:10:37.574Z,0
2018-04-23T01:11:59.107Z,0
2018-04-23T01:13:20.903Z,0
2018-04-23T01:14:42.434Z,0
2018-04-23T01:16:04.556Z,0
2018-04-23T01:17:26.349Z,0
2018-04-23T01:18:48.164Z,0
2018-04-23T01:20:09.689Z,0
2018-04-23T01:21:31.229Z,0
2018-04-23T01:22:53.280Z,0
2018-04-23T01:24:15.341Z,0
2018-04-23T01:25:37.421Z,0
2018-04-23T01:26:58.967Z,0
2018-04-23T01:28:20.769Z,0
2018-04-23T01:29:42.307Z,0
2018-04-23T01:31:04.368Z,0
2018-04-23T01:32:25.917Z,0
2018-04-23T01:33:48.011Z,0
2018-04-23T01:35:10.061Z,0
2018-04-23T01:36:31.865Z,0
2018-04-23T01:37:53.925Z,0
2018-04-23T01:39:15.984Z,0
2018-04-23T01:40:37.787Z,0
2018-04-23T01:41:59.844Z,0
2018-04-23T01:43:21.644Z,0
2018-04-23T01:44:43.447Z,0
2018-04-23T01:46:05.240Z,0
2018-04-23T01:47:27.310Z,0
2018-04-23T01:48:48.845Z,0
2018-04-23T01:50:10.379Z,0
2018-04-23T01:51:32.174Z,0
2018-04-23T01:52:53.970Z,0
2018-04-23T01:54:15.771Z,0
2018-04-23T01:55:37.827Z,0
2018-04-23T01:56:59.631Z,0
2018-04-23T01:58:21.691Z,0
2018-04-23T01:59:43.479Z,0
2018-04-23T02:01:05.553Z,0
2018-04-23T02:02:27.105Z,0
2018-04-23T02:03:48.894Z,0
2018-04-23T02:05:10.967Z,0
2018-04-23T02:06:32.768Z,0
2018-04-23T02:07:54.554Z,0
2018-04-23T02:09:16.092Z,0
2018-04-23T02:10:38.155Z,0
2018-04-23T02:11:59.701Z,0
2018-04-23T02:13:21.494Z,0
2018-04-23T02:14:43.295Z,0
2018-04-23T02:16:05.088Z,0
2018-04-23T02:17:26.617Z,0
2018-04-23T02:18:48.444Z,0
2018-04-23T02:20:10.383Z,0
2018-04-23T02:21:31.651Z,0
2018-04-23T02:22:53.804Z,0
2018-04-23T02:24:15.260Z,0
2018-04-23T02:25:37.305Z,0
2018-04-23T02:26:59.378Z,0
2018-04-23T02:28:21.189Z,0
2018-04-23T02:29:42.717Z,0
2018-04-23T02:31:04.771Z,0
2018-04-23T02:32:26.823Z,0
2018-04-23T02:33:48.888Z,0
2018-04-23T02:35:10.441Z,0
2018-04-23T02:36:32.239Z,0
2018-04-23T02:37:53.511Z,0
2018-04-23T02:39:15.045Z,0
2018-04-23T02:40:36.861Z,0
2018-04-23T02:41:58.917Z,0
2018-04-23T02:43:20.721Z,0
2018-04-23T02:44:42.773Z,0
2018-04-23T02:46:04.060Z,0
2018-04-23T02:47:25.605Z,0
2018-04-23T02:48:47.410Z,0
2018-04-23T02:50:09.470Z,0
2018-04-23T02:51:31.279Z,0
2018-04-23T02:52:53.344Z,0
2018-04-23T02:54:15.438Z,0
2018-04-23T02:55:36.986Z,0
2018-04-23T02:56:58.808Z,0
2018-04-23T02:58:20.350Z,0
2018-04-23T02:59:42.168Z,0
2018-04-23T03:01:03.966Z,0
2018-04-23T03:02:25.780Z,0
2018-04-23T03:03:47.075Z,0
2018-04-23T03:05:08.934Z,0
2018-04-23T03:06:30.731Z,0
2018-04-23T03:07:52.808Z,0
2018-04-23T03:09:14.870Z,0
2018-04-23T03:10:36.676Z,0
2018-04-23T03:11:58.765Z,0
2018-04-23T03:13:20.823Z,0
2018-04-23T03:14:42.879Z,0
2018-04-23T03:16:04.682Z,0
2018-04-23T03:17:25.970Z,0
2018-04-23T03:18:47.755Z,0
2018-04-23T03:20:09.296Z,0
2018-04-23T03:21:31.092Z,0
2018-04-23T03:22:52.883Z,0
2018-04-23T03:24:14.672Z,0
2018-04-23T03:25:36.730Z,0
2018-04-23T03:26:58.296Z,0
2018-04-23T03:28:20.353Z,0
2018-04-23T03:29:42.430Z,0
2018-04-23T03:31:04.240Z,0
2018-04-23T03:32:26.034Z,0
2018-04-23T03:33:48.090Z,0
2018-04-23T03:35:09.873Z,0
2018-04-23T03:36:31.934Z,0
2018-04-23T03:37:53.486Z,0
2018-04-23T03:39:15.017Z,0
2018-04-23T03:40:37.070Z,0
2018-04-23T03:41:59.140Z,0
2018-04-23T03:43:21.210Z,0
2018-04-23T03:44:43.011Z,0
2018-04-23T03:46:04.536Z,0
2018-04-23T03:47:26.587Z,0
2018-04-23T03:48:47.856Z,0
2018-04-23T03:50:09.647Z,0
2018-04-23T03:51:31.689Z,0
2018-04-23T03:52:53.214Z,0
2018-04-23T03:54:15.022Z,0
2018-04-23T03:55:37.107Z,0
2018-04-23T03:56:58.912Z,0
2018-04-23T03:58:20.976Z,0
2018-04-23T03:59:42.785Z,0
2018-04-23T04:01:04.833Z,0
2018-04-23T04:02:26.905Z,0
2018-04-23T04:03:49.006Z,0
2018-04-23T04:05:11.062Z,5
2018-04-23T04:06:32.858Z,5
2018-04-23T04:07:54.663Z,5
2018-04-23T04:09:16.491Z,5
2018-04-23T04:10:38.563Z,5
2018-04-23T04:12:00.355Z,10
2018-04-23T04:13:22.419Z,10
2018-04-23T04:14:43.959Z,10
2018-04-23T04:16:06.008Z,15
2018-04-23T04:17:27.553Z,15
2018-04-23T04:18:49.415Z,15
2018-04-23T04:20:10.904Z,20
2018-04-23T04:21:32.980Z,20
2018-04-23T04:22:55.035Z,25
2018-04-23T04:24:17.100Z,25
2018-04-23T04:25:38.899Z,30
2018-04-23T04:27:00.693Z,30
2018-04-23T04:28:22.484Z,35
2018-04-23T04:29:44.540Z,35
2018-04-23T04:31:06.606Z,35
2018-04-23T04:32:28.405Z,35
2018-04-23T04:33:50.520Z,35
2018-04-23T04:35:12.307Z,40
2018-04-23T04:36:34.110Z,40
2018-04-23T04:37:55.648Z,45
2018-04-23T04:39:17.727Z,45
2018-04-23T04:40:39.788Z,45
2018-04-23T04:42:01.595Z,50
2018-04-23T04:43:23.703Z,55
2018-04-23T04:44:45.779Z,65
2018-04-23T04:46:07.330Z,65
2018-04-23T04:47:29.389Z,65
2018-04-23T04:48:51.184Z,70
2018-04-23T04:50:13.260Z,75
2018-04-23T04:51:35.432Z,75
2018-04-23T04:52:57.501Z,60
2018-04-23T04:54:19.040Z,50
2018-04-23T04:55:40.860Z,50
2018-04-23T04:57:02.947Z,50
2018-04-23T04:58:24.766Z,55
2018-04-23T04:59:46.045Z,60
2018-04-23T05:01:07.839Z,65
2018-04-23T05:02:29.654Z,75
2018-04-23T05:03:51.454Z,80
2018-04-23T05:05:13.285Z,90
2018-04-23T05:06:35.369Z,95
2018-04-23T05:07:57.180Z,100
2018-04-23T05:09:19.236Z,105
2018-04-23T05:10:40.793Z,105
2018-04-23T05:12:02.694Z,110
2018-04-23T05:13:24.770Z,115
2018-04-23T05:14:46.862Z,120
2018-04-23T05:16:08.679Z,135
2018-04-23T05:17:30.768Z,140
2018-04-23T05:18:52.828Z,150
2018-04-23T05:20:14.911Z,160
2018-04-23T05:21:36.192Z,175
2018-04-23T05:22:58.274Z,180
2018-04-23T05:24:20.336Z,185
2018-04-23T05:25:42.150Z,185
2018-04-23T05:27:04.206Z,215
2018-04-23T05:28:26.008Z,215
2018-04-23T05:29:47.809Z,235
2018-04-23T05:31:09.624Z,250
2018-04-23T05:32:31.424Z,325
2018-04-23T05:33:53.482Z,315
2018-04-23T05:35:15.550Z,340
2018-04-23T05:36:37.362Z,360
2018-04-23T05:37:59.188Z,380
2018-04-23T05:39:21.273Z,275
2018-04-23T05:40:43.347Z,235
2018-04-23T05:42:04.628Z,285
2018-04-23T05:43:26.524Z,260
2018-04-23T05:44:48.333Z,175
2018-04-23T05:46:10.137Z,115
2018-04-23T05:47:31.725Z,105
2018-04-23T05:48:53.518Z,125
2018-04-23T05:50:15.053Z,150
2018-04-23T05:51:37.168Z,170
2018-04-23T05:52:59.244Z,200
2018-04-23T05:54:21.048Z,205
2018-04-23T05:55:42.856Z,195
2018-04-23T05:57:04.931Z,180
2018-04-23T05:58:26.742Z,160
2018-04-23T05:59:48.823Z,155
2018-04-23T06:01:10.880Z,175
2018-04-23T06:02:32.962Z,155
2018-04-23T06:03:55.034Z,140
2018-04-23T06:05:16.888Z,145
2018-04-23T06:06:38.505Z,140
2018-04-23T06:08:00.557Z,145
2018-04-23T06:09:22.628Z,150
2018-04-23T06:10:44.426Z,145
2018-04-23T06:12:06.207Z,145
2018-04-23T06:13:27.766Z,145
2018-04-23T06:14:49.589Z,145
2018-04-23T06:16:11.671Z,135
2018-04-23T06:17:33.468Z,130
2018-04-23T06:18:55.326Z,130
2018-04-23T06:20:17.122Z,135
2018-04-23T06:21:39.178Z,135
2018-04-23T06:23:01.252Z,145
2018-04-23T06:24:23.439Z,170
2018-04-23T06:25:45.509Z,220
2018-04-23T06:27:08.392Z,265
2018-04-23T06:28:30.101Z,250
2018-04-23T06:29:51.922Z,285
2018-04-23T06:31:13.722Z,280
2018-04-23T06:32:35.526Z,320
2018-04-23T06:33:56.308Z,225
2018-04-23T06:35:17.892Z,225
2018-04-23T06:36:39.713Z,360
2018-04-23T06:38:01.786Z,240
2018-04-23T06:39:23.599Z,255
2018-04-23T06:40:45.679Z,305
2018-04-23T06:42:07.496Z,275
2018-04-23T06:43:29.563Z,340
2018-04-23T06:44:51.397Z,320
2018-04-23T06:46:13.469Z,295
2018-04-23T06:47:35.029Z,395
2018-04-23T06:48:57.114Z,455
2018-04-23T06:50:19.230Z,475
2018-04-23T06:51:41.306Z,465
2018-04-23T06:53:03.377Z,480
2018-04-23T06:54:25.465Z,480
2018-04-23T06:55:47.526Z,485
2018-04-23T06:57:09.346Z,515
2018-04-23T06:58:31.423Z,530
2018-04-23T06:59:53.497Z,305
2018-04-23T07:01:15.319Z,375
2018-04-23T07:02:37.145Z,465
2018-04-23T07:03:58.986Z,420
2018-04-23T07:05:21.280Z,310
2018-04-23T07:06:43.112Z,510
2018-04-23T07:08:04.909Z,440
2018-04-23T07:09:26.704Z,465
2018-04-23T07:10:48.637Z,375
2018-04-23T07:12:10.192Z,340
2018-04-23T07:13:32.268Z,440
2018-04-23T07:14:54.097Z,310
2018-04-23T07:16:15.931Z,310
2018-04-23T07:17:37.489Z,305
2018-04-23T07:18:59.582Z,350
2018-04-23T07:20:21.130Z,385
2018-04-23T07:21:43.228Z,355
2018-04-23T07:23:05.018Z,405
2018-04-23T07:24:26.875Z,360
2018-04-23T07:25:48.708Z,490
2018-04-23T07:27:10.259Z,320
2018-04-23T07:28:32.378Z,310
2018-04-23T07:29:54.197Z,385
2018-04-23T07:31:16.019Z,360
2018-04-23T07:32:37.582Z,535
2018-04-23T07:33:59.668Z,385
2018-04-23T07:35:21.212Z,280
2018-04-23T07:36:43.046Z,360
2018-04-23T07:38:04.847Z,265
2018-04-23T07:39:26.419Z,220
2018-04-23T07:40:48.610Z,305
2018-04-23T07:42:10.151Z,330
2018-04-23T07:43:31.699Z,265
2018-04-23T07:44:53.776Z,260
2018-04-23T07:46:15.605Z,245
2018-04-23T07:47:37.430Z,225
2018-04-23T07:48:59.238Z,275
2018-04-23T07:50:21.321Z,315
2018-04-23T07:51:43.127Z,350
2018-04-23T07:53:05.196Z,435
2018-04-23T07:54:27.134Z,555
2018-04-23T07:55:48.931Z,435
2018-04-23T07:57:10.988Z,470
2018-04-23T07:58:33.061Z,475
2018-04-23T07:59:54.887Z,475
2018-04-23T08:01:16.990Z,485
2018-04-23T08:02:39.075Z,440
2018-04-23T08:04:00.894Z,440
2018-04-23T08:05:22.992Z,395
2018-04-23T08:06:44.955Z,340
2018-04-23T08:08:06.784Z,390
2018-04-23T08:09:28.873Z,435
2018-04-23T08:10:50.692Z,405
2018-04-23T08:12:12.797Z,435
2018-04-23T08:13:34.894Z,430
2018-04-23T08:14:56.693Z,390
2018-04-23T08:16:18.767Z,395
2018-04-23T08:17:40.624Z,315
2018-04-23T08:19:02.436Z,370
2018-04-23T08:20:24.489Z,425
2018-04-23T08:21:46.565Z,330
2018-04-23T08:23:08.645Z,425
2018-04-23T08:24:30.731Z,405
2018-04-23T08:25:52.352Z,360
2018-04-23T08:27:13.946Z,285
2018-04-23T08:28:35.844Z,370
2018-04-23T08:29:57.937Z,470
2018-04-23T08:31:20.023Z,340
2018-04-23T08:32:41.845Z,355
2018-04-23T08:34:03.936Z,460
2018-04-23T08:35:26.024Z,465
2018-04-23T08:36:47.844Z,325
2018-04-23T08:38:09.450Z,295
2018-04-23T08:39:31.256Z,320
2018-04-23T08:40:53.343Z,365
2018-04-23T08:42:14.896Z,455
2018-04-23T08:43:36.726Z,495
2018-04-23T08:44:58.272Z,565
2018-04-23T08:46:20.098Z,430
2018-04-23T08:47:42.070Z,285
2018-04-23T08:49:04.238Z,240
2018-04-23T08:50:26.065Z,295
2018-04-23T08:51:47.888Z,355
2018-04-23T08:53:09.978Z,340
2018-04-23T08:54:32.065Z,300
2018-04-23T08:55:53.992Z,325
2018-04-23T08:57:15.280Z,370
2018-04-23T08:58:37.076Z,440
2018-04-23T08:59:58.891Z,420
2018-04-23T09:01:20.762Z,455
2018-04-23T09:02:42.856Z,480
2018-04-23T09:04:04.948Z,475
2018-04-23T09:05:26.764Z,425
2018-04-23T09:06:48.570Z,415
2018-04-23T09:08:10.377Z,430
2018-04-23T09:09:32.446Z,375
2018-04-23T09:10:54.246Z,305
2018-04-23T09:12:15.787Z,350
2018-04-23T09:13:37.864Z,320
2018-04-23T09:14:59.934Z,290
2018-04-23T09:16:22.052Z,295
2018-04-23T09:17:44.236Z,310
2018-04-23T09:19:06.330Z,280
2018-04-23T09:20:28.412Z,275
2018-04-23T09:21:50.488Z,275
2018-04-23T09:23:12.030Z,300
2018-04-23T09:24:33.848Z,305
2018-04-23T09:25:55.682Z,395
2018-04-23T09:27:17.496Z,370
2018-04-23T09:28:39.315Z,350
2018-04-23T09:30:01.370Z,380
2018-04-23T09:31:23.174Z,445
2018-04-23T09:32:45.258Z,425
2018-04-23T09:34:07.340Z,375
2018-04-23T09:35:29.468Z,385
2018-04-23T09:36:51.584Z,395
2018-04-23T09:38:13.398Z,390
2018-04-23T09:39:35.496Z,450
2018-04-23T09:40:57.584Z,485
2018-04-23T09:42:19.667Z,535
2018-04-23T09:43:41.742Z,560
2018-04-23T09:45:03.926Z,535
2018-04-23T09:46:25.725Z,485
2018-04-23T09:47:47.542Z,460
2018-04-23T09:49:09.634Z,305
2018-04-23T09:50:31.743Z,165
2018-04-23T09:51:53.820Z,145
2018-04-23T09:53:15.896Z,160
2018-04-23T09:54:37.711Z,195
2018-04-23T09:55:59.524Z,170
2018-04-23T09:57:21.584Z,175
2018-04-23T09:58:43.712Z,210
2018-04-23T10:00:05.535Z,265
2018-04-23T10:01:27.446Z,240
2018-04-23T10:02:49.518Z,235
2018-04-23T10:04:11.329Z,240
2018-04-23T10:05:32.881Z,255
2018-04-23T10:06:54.435Z,275
2018-04-23T10:08:16.505Z,275
2018-04-23T10:09:38.088Z,255
2018-04-23T10:11:00.173Z,265
2018-04-23T10:12:21.779Z,300
2018-04-23T10:13:43.881Z,345
2018-04-23T10:15:05.702Z,325
2018-04-23T10:16:27.508Z,330
2018-04-23T10:17:49.326Z,375
2018-04-23T10:19:11.153Z,435
2018-04-23T10:20:32.972Z,415
2018-04-23T10:21:55.039Z,355
2018-04-23T10:23:16.604Z,300
2018-04-23T10:24:38.693Z,270
2018-04-23T10:26:00.775Z,255
2018-04-23T10:27:22.853Z,255
2018-04-23T10:28:44.689Z,295
2018-04-23T10:30:06.830Z,285
2018-04-23T10:31:28.988Z,255
2018-04-23T10:32:50.867Z,245
2018-04-23T10:34:12.682Z,235
2018-04-23T10:35:34.259Z,230
2018-04-23T10:36:56.373Z,200
2018-04-23T10:38:17.932Z,215
2018-04-23T10:39:39.738Z,260
2018-04-23T10:41:01.834Z,280
2018-04-23T10:42:23.653Z,345
2018-04-23T10:43:45.725Z,305
2018-04-23T10:45:07.802Z,360
2018-04-23T10:46:29.344Z,355
2018-04-23T10:47:51.413Z,295
2018-04-23T10:49:13.254Z,300
2018-04-23T10:50:35.317Z,330
2018-04-23T10:51:56.072Z,365
2018-04-23T10:53:17.878Z,350
2018-04-23T10:54:39.691Z,405
2018-04-23T10:56:01.799Z,410
2018-04-23T10:57:23.878Z,335
2018-04-23T10:58:45.409Z,265
2018-04-23T11:00:07.626Z,235
2018-04-23T11:01:29.173Z,220
2018-04-23T11:02:50.960Z,240
2018-04-23T11:04:13.043Z,260
2018-04-23T11:05:34.595Z,275
2018-04-23T11:06:56.690Z,320
2018-04-23T11:08:18.505Z,335
2018-04-23T11:09:40.336Z,245
2018-04-23T11:11:02.436Z,205
2018-04-23T11:12:24.252Z,195
2018-04-23T11:13:46.081Z,235
2018-04-23T11:15:08.172Z,250
2018-04-23T11:16:29.977Z,275
2018-04-23T11:17:51.795Z,320
2018-04-23T11:19:13.600Z,315
2018-04-23T11:20:35.687Z,320
2018-04-23T11:21:57.790Z,350
2018-04-23T11:23:19.892Z,370
2018-04-23T11:24:41.443Z,385
2018-04-23T11:26:03.517Z,385
2018-04-23T11:27:25.320Z,385
2018-04-23T11:28:47.150Z,375
2018-04-23T11:30:08.455Z,365
2018-04-23T11:31:30.529Z,355
2018-04-23T11:32:52.107Z,345
2018-04-23T11:34:13.672Z,330
2018-04-23T11:35:35.757Z,325
2018-04-23T11:36:57.850Z,280
2018-04-23T11:38:19.929Z,255
2018-04-23T11:39:42.030Z,265
2018-04-23T11:41:03.622Z,310
2018-04-23T11:42:25.701Z,340
2018-04-23T11:43:47.256Z,350
2018-04-23T11:45:09.442Z,380
2018-04-23T11:46:31.562Z,380
2018-04-23T11:47:53.366Z,385
2018-04-23T11:49:15.434Z,395
2018-04-23T11:50:37.522Z,430
2018-04-23T11:51:59.343Z,395
2018-04-23T11:53:21.550Z,400
2018-04-23T11:54:43.366Z,340
2018-04-23T11:56:05.443Z,290
2018-04-23T11:57:27.281Z,245
2018-04-23T11:58:49.389Z,215
2018-04-23T12:00:11.489Z,215
2018-04-23T12:01:33.572Z,260
2018-04-23T12:02:55.424Z,290
2018-04-23T12:04:17.236Z,265
2018-04-23T12:05:39.323Z,270
2018-04-23T12:07:01.403Z,255
2018-04-23T12:08:23.475Z,255
2018-04-23T12:09:45.018Z,265
2018-04-23T12:11:06.622Z,270
2018-04-23T12:12:28.429Z,280
2018-04-23T12:13:50.519Z,290
2018-04-23T12:15:12.071Z,270
2018-04-23T12:16:33.923Z,305
2018-04-23T12:17:56.001Z,340
2018-04-23T12:19:17.816Z,380
2018-04-23T12:20:39.619Z,405
2018-04-23T12:22:01.937Z,390
2018-04-23T12:23:23.760Z,395
2018-04-23T12:24:45.572Z,390
2018-04-23T12:26:07.636Z,345
2018-04-23T12:27:29.187Z,315
2018-04-23T12:28:50.994Z,335
2018-04-23T12:30:13.075Z,320
2018-04-23T12:31:35.218Z,280
2018-04-23T12:32:57.027Z,215
2018-04-23T12:34:18.853Z,220
2018-04-23T12:35:40.656Z,250
2018-04-23T12:37:02.482Z,240
2018-04-23T12:38:24.302Z,260
2018-04-23T12:39:46.474Z,265
2018-04-23T12:41:08.612Z,245
2018-04-23T12:42:30.459Z,270
2018-04-23T12:43:52.275Z,280
2018-04-23T12:45:14.356Z,305
2018-04-23T12:46:36.575Z,295
2018-04-23T12:47:58.130Z,290
2018-04-23T12:49:19.961Z,305
2018-04-23T12:50:41.776Z,285
2018-04-23T12:52:03.579Z,265
2018-04-23T12:53:25.396Z,255
2018-04-23T12:54:47.480Z,280
2018-04-23T12:56:09.294Z,285
2018-04-23T12:57:31.397Z,240
2018-04-23T12:58:53.202Z,205
2018-04-23T13:00:15.290Z,210
2018-04-23T13:01:37.384Z,215
2018-04-23T13:02:58.945Z,215
2018-04-23T13:04:20.776Z,180
2018-04-23T13:05:42.877Z,205
2018-04-23T13:07:04.962Z,185
2018-04-23T13:08:26.767Z,195
2018-04-23T13:09:48.848Z,210
2018-04-23T13:11:10.935Z,215
2018-04-23T13:12:32.636Z,245
2018-04-23T13:13:54.708Z,305
2018-04-23T13:15:16.786Z,325
2018-04-23T13:16:38.355Z,300
2018-04-23T13:18:00.435Z,280
2018-04-23T13:19:22.258Z,295
2018-04-23T13:20:44.348Z,295
2018-04-23T13:22:06.425Z,305
2018-04-23T13:23:28.247Z,305
2018-04-23T13:24:50.345Z,275
2018-04-23T13:26:12.153Z,260
2018-04-23T13:27:34.250Z,260
2018-04-23T13:28:56.359Z,255
2018-04-23T13:30:18.433Z,230
2018-04-23T13:31:40.294Z,250
2018-04-23T13:33:02.123Z,245
2018-04-23T13:34:23.929Z,240
2018-04-23T13:35:45.987Z,240
2018-04-23T13:37:08.142Z,245
2018-04-23T13:38:30.201Z,245
2018-04-23T13:39:52.286Z,300
2018-04-23T13:41:13.851Z,315
2018-04-23T13:42:36.065Z,320
2018-04-23T13:43:57.895Z,320
2018-04-23T13:45:19.726Z,315
2018-04-23T13:46:41.851Z,330
2018-04-23T13:48:03.691Z,305
2018-04-23T13:49:25.517Z,315
2018-04-23T13:50:47.589Z,325
2018-04-23T13:52:09.170Z,320
2018-04-23T13:53:31.396Z,295
2018-04-23T13:54:53.456Z,305
2018-04-23T13:56:15.589Z,320
2018-04-23T13:57:37.469Z,345
2018-04-23T13:58:59.535Z,330
2018-04-23T14:00:21.652Z,300
2018-04-23T14:01:43.551Z,280
2018-04-23T14:03:05.361Z,290
2018-04-23T14:04:26.921Z,265
2018-04-23T14:05:49.030Z,255
2018-04-23T14:07:11.188Z,255
2018-04-23T14:08:33.004Z,250
2018-04-23T14:09:54.833Z,240
2018-04-23T14:11:16.671Z,245
2018-04-23T14:12:38.473Z,230
2018-04-23T14:14:00.578Z,230
2018-04-23T14:15:22.684Z,225
2018-04-23T14:16:44.487Z,205
2018-04-23T14:18:06.323Z,205
2018-04-23T14:19:28.196Z,200
2018-04-23T14:20:49.761Z,200
2018-04-23T14:22:11.874Z,220
2018-04-23T14:23:33.689Z,245
2018-04-23T14:24:55.787Z,280
2018-04-23T14:26:17.623Z,305
2018-04-23T14:27:39.707Z,305
2018-04-23T14:29:01.534Z,320
2018-04-23T14:30:23.613Z,335
2018-04-23T14:31:45.424Z,370
2018-04-23T14:33:07.551Z,330
2018-04-23T14:34:29.660Z,295
2018-04-23T14:35:51.491Z,295
2018-04-23T14:37:13.573Z,275
2018-04-23T14:38:35.418Z,250
2018-04-23T14:39:57.259Z,250
2018-04-23T14:41:19.109Z,240
2018-04-23T14:42:40.663Z,235
2018-04-23T14:44:02.768Z,240
2018-04-23T14:45:25.117Z,235
2018-04-23T14:46:47.241Z,245
2018-04-23T14:48:09.068Z,250
2018-04-23T14:49:31.156Z,250
2018-04-23T14:50:53.268Z,270
2018-04-23T14:52:15.360Z,265
2018-04-23T14:53:37.187Z,275
2018-04-23T14:54:59.266Z,265
2018-04-23T14:56:21.077Z,255
2018-04-23T14:57:42.932Z,235
2018-04-23T14:59:05.054Z,215
2018-04-23T15:00:27.149Z,210
2018-04-23T15:01:49.233Z,210
2018-04-23T15:03:11.333Z,220
2018-04-23T15:04:33.422Z,240
2018-04-23T15:05:55.268Z,280
2018-04-23T15:07:17.104Z,275
2018-04-23T15:08:39.239Z,280
2018-04-23T15:10:01.062Z,290
2018-04-23T15:11:23.149Z,290
2018-04-23T15:12:45.240Z,280
2018-04-23T15:14:07.057Z,250
2018-04-23T15:15:29.135Z,215
2018-04-23T15:16:50.707Z,205
2018-04-23T15:18:12.563Z,195
2018-04-23T15:19:34.659Z,200
2018-04-23T15:20:56.498Z,205
2018-04-23T15:22:18.091Z,210
2018-04-23T15:23:40.189Z,215
2018-04-23T15:25:02.280Z,235
2018-04-23T15:26:24.356Z,250
2018-04-23T15:27:46.640Z,265
2018-04-23T15:29:08.771Z,275
2018-04-23T15:30:30.349Z,290
2018-04-23T15:31:52.159Z,255
2018-04-23T15:33:14.040Z,205
2018-04-23T15:34:36.204Z,195
2018-04-23T15:35:58.349Z,180
2018-04-23T15:37:20.490Z,180
2018-04-23T15:38:42.338Z,180
2018-04-23T15:40:04.417Z,205
2018-04-23T15:41:26.652Z,215
2018-04-23T15:42:48.493Z,235
2018-04-23T15:44:10.310Z,220
2018-04-23T15:45:32.416Z,210
2018-04-23T15:46:54.517Z,200
2018-04-23T15:48:16.586Z,190
2018-04-23T15:49:38.455Z,210
2018-04-23T15:51:00.303Z,245
2018-04-23T15:52:22.403Z,235
2018-04-23T15:53:44.274Z,220
2018-04-23T15:55:06.368Z,215
2018-04-23T15:56:28.458Z,220
2018-04-23T15:57:50.566Z,215
2018-04-23T15:59:12.670Z,200
2018-04-23T16:00:34.783Z,185
2018-04-23T16:01:56.897Z,170
2018-04-23T16:03:18.758Z,165
2018-04-23T16:04:40.857Z,165
2018-04-23T16:06:03.014Z,160
2018-04-23T16:07:24.565Z,160
2018-04-23T16:08:46.389Z,160
2018-04-23T16:10:08.228Z,155
2018-04-23T16:11:29.800Z,155
2018-04-23T16:12:51.899Z,160
2018-04-23T16:14:14.002Z,160
2018-04-23T16:15:36.109Z,160
2018-04-23T16:16:58.248Z,155
2018-04-23T16:18:20.342Z,150
2018-04-23T16:19:42.155Z,155
2018-04-23T16:21:04.264Z,155
2018-04-23T16:22:26.379Z,165
2018-04-23T16:23:48.479Z,155
2018-04-23T16:25:10.563Z,155
2018-04-23T16:26:32.390Z,155
2018-04-23T16:27:54.523Z,155
2018-04-23T16:29:16.356Z,145
2018-04-23T16:30:38.447Z,140
2018-04-23T16:32:00.564Z,145
2018-04-23T16:33:22.646Z,150
2018-04-23T16:34:44.496Z,155
2018-04-23T16:36:06.585Z,155
2018-04-23T16:37:28.418Z,160
2018-04-23T16:38:50.268Z,160
2018-04-23T16:40:12.449Z,180
2018-04-23T16:41:34.271Z,175
2018-04-23T16:42:56.122Z,165
2018-04-23T16:44:18.245Z,155
2018-04-23T16:45:40.109Z,150
2018-04-23T16:47:01.674Z,145
2018-04-23T16:48:23.771Z,145
2018-04-23T16:49:45.604Z,135
2018-04-23T16:51:07.719Z,135
2018-04-23T16:52:29.568Z,135
2018-04-23T16:53:51.724Z,135
2018-04-23T16:55:13.604Z,120
2018-04-23T16:56:35.777Z,110
2018-04-23T16:57:57.867Z,105
2018-04-23T16:59:19.954Z,100
2018-04-23T17:00:42.060Z,95
2018-04-23T17:02:03.914Z,100
2018-04-23T17:03:26.088Z,105
2018-04-23T17:04:47.953Z,100
2018-04-23T17:06:10.062Z,110
2018-04-23T17:07:32.186Z,130
2018-04-23T17:08:54.047Z,135
2018-04-23T17:10:16.236Z,135
2018-04-23T17:11:38.396Z,140
2018-04-23T17:13:00.513Z,140
2018-04-23T17:14:22.111Z,120
2018-04-23T17:15:43.981Z,105
2018-04-23T17:17:06.126Z,100
2018-04-23T17:18:27.998Z,110
2018-04-23T17:19:49.878Z,110
2018-04-23T17:21:11.733Z,110
2018-04-23T17:22:33.341Z,115
2018-04-23T17:23:54.970Z,100
2018-04-23T17:25:16.809Z,90
2018-04-23T17:26:38.387Z,90
2018-04-23T17:28:00.551Z,80
2018-04-23T17:29:22.443Z,75
2018-04-23T17:30:44.539Z,75
2018-04-23T17:32:06.672Z,75
2018-04-23T17:33:28.789Z,85
2018-04-23T17:34:50.364Z,90
2018-04-23T17:36:12.495Z,90
2018-04-23T17:37:34.381Z,80
2018-04-23T17:38:56.241Z,80
2018-04-23T17:40:18.105Z,75
2018-04-23T17:41:40.268Z,75
2018-04-23T17:43:02.387Z,70
2018-04-23T17:44:24.259Z,65
2018-04-23T17:45:46.114Z,65
2018-04-23T17:47:07.996Z,70
2018-04-23T17:48:29.810Z,70
2018-04-23T17:49:51.921Z,80
2018-04-23T17:51:14.004Z,80
2018-04-23T17:52:36.138Z,80
2018-04-23T17:53:57.734Z,85
2018-04-23T17:55:19.842Z,80
2018-04-23T17:56:41.948Z,75
2018-04-23T17:58:03.818Z,70
2018-04-23T17:59:25.661Z,65
2018-04-23T18:00:47.476Z,60
2018-04-23T18:02:09.644Z,55
2018-04-23T18:03:31.467Z,50
2018-04-23T18:04:53.309Z,45
2018-04-23T18:06:15.192Z,45
2018-04-23T18:07:37.304Z,40
2018-04-23T18:08:59.429Z,35
2018-04-23T18:10:21.251Z,35
2018-04-23T18:11:43.376Z,30
2018-04-23T18:13:05.253Z,30
2018-04-23T18:14:27.419Z,25
2018-04-23T18:15:49.565Z,25
2018-04-23T18:17:11.129Z,25
2018-04-23T18:18:33.234Z,20
2018-04-23T18:19:55.071Z,20
2018-04-23T18:21:16.942Z,20
2018-04-23T18:22:39.092Z,20
2018-04-23T18:24:00.929Z,15
2018-04-23T18:25:23.081Z,15
2018-04-23T18:26:45.194Z,15
2018-04-23T18:28:07.303Z,15
2018-04-23T18:29:29.163Z,10
2018-04-23T18:30:51.322Z,10
2018-04-23T18:32:13.434Z,10
2018-04-23T18:33:35.313Z,10
2018-04-23T18:34:57.435Z,10
2018-04-23T18:36:19.543Z,5
2018-04-23T18:37:41.386Z,5
2018-04-23T18:39:03.309Z,5
2018-04-23T18:40:25.198Z,5
2018-04-23T18:41:47.046Z,5
2018-04-23T18:43:09.145Z,0
2018-04-23T18:44:31.352Z,0
2018-04-23T18:45:53.268Z,0
2018-04-23T18:47:15.411Z,0
2018-04-23T18:48:37.532Z,0
2018-04-23T18:49:59.813Z,0
2018-04-23T18:51:22.021Z,0
2018-04-23T18:52:43.870Z,0
2018-04-23T18:54:06.027Z,0
2018-04-23T18:55:27.904Z,0
2018-04-23T18:56:50.060Z,0
2018-04-23T18:58:12.184Z,0
2018-04-23T18:59:34.308Z,0
2018-04-23T19:00:56.467Z,0
2018-04-23T19:02:18.615Z,0
2018-04-23T19:03:40.483Z,0
2018-04-23T19:05:02.570Z,0
2018-04-23T19:06:24.440Z,0
2018-04-23T19:07:48.657Z,0
2018-04-23T19:09:10.874Z,0
2018-04-23T19:10:32.720Z,0
2018-04-23T19:11:54.963Z,0